createdAt,value
2016-08-12T00:00:39.005Z,0
2016-08-12T00:01:38.288Z,0
2016-08-12T00:03:38.275Z,0
2016-08-12T00:04:38.967Z,0
2016-08-12T00:05:38.236Z,0
2016-08-12T00:06:37.536Z,0
2016-08-12T00:07:39.631Z,0
2016-08-12T00:08:38.235Z,0
2016-08-12T00:09:38.211Z,0
2016-08-12T00:10:38.179Z,0
2016-08-12T00:11:38.169Z,0
2016-08-12T00:12:38.867Z,0
2016-08-12T00:13:37.440Z,0
2016-08-12T00:14:37.426Z,0
2016-08-12T00:15:37.419Z,0
2016-08-12T00:16:38.122Z,0
2016-08-12T00:17:39.524Z,0
2016-08-12T00:18:38.094Z,0
2016-08-12T00:19:37.385Z,0
2016-08-12T00:20:38.779Z,0
2016-08-12T00:21:38.059Z,0
2016-08-12T00:22:38.049Z,0
2016-08-12T00:23:37.338Z,0
2016-08-12T00:24:38.734Z,0
2016-08-12T00:25:38.724Z,0
2016-08-12T00:26:39.433Z,0
2016-08-12T00:27:38.010Z,0
2016-08-12T00:28:37.988Z,0
2016-08-12T00:29:38.696Z,0
2016-08-12T00:30:37.983Z,0
2016-08-12T00:31:37.246Z,0
2016-08-12T00:32:37.226Z,0
2016-08-12T00:33:37.928Z,0
2016-08-12T00:34:39.325Z,0
2016-08-12T00:35:37.899Z,0
2016-08-12T00:36:37.891Z,0
2016-08-12T00:37:37.881Z,0
2016-08-12T00:38:38.570Z,0
2016-08-12T00:39:37.860Z,0
2016-08-12T00:40:38.581Z,0
2016-08-12T00:41:38.542Z,0
2016-08-12T00:42:37.121Z,0
2016-08-12T00:43:37.109Z,0
2016-08-12T00:44:38.528Z,0
2016-08-12T00:45:37.828Z,0
2016-08-12T00:46:38.488Z,0
2016-08-12T00:47:37.776Z,0
2016-08-12T00:48:37.056Z,0
2016-08-12T00:49:37.753Z,0
2016-08-12T00:50:38.461Z,0
2016-08-12T00:51:37.731Z,0
2016-08-12T00:52:37.721Z,0
2016-08-12T00:53:38.418Z,0
2016-08-12T00:54:38.413Z,0
2016-08-12T00:55:39.095Z,0
2016-08-12T00:56:38.384Z,0
2016-08-12T00:57:38.371Z,0
2016-08-12T00:58:38.365Z,0
2016-08-12T00:59:37.642Z,0
2016-08-12T01:00:38.346Z,0
2016-08-12T01:01:36.921Z,0
2016-08-12T01:02:37.610Z,0
2016-08-12T01:03:38.305Z,0
2016-08-12T01:04:39.009Z,0
2016-08-12T01:05:37.578Z,0
2016-08-12T01:06:37.573Z,0
2016-08-12T01:07:38.982Z,0
2016-08-12T01:08:38.247Z,0
2016-08-12T01:09:36.842Z,0
2016-08-12T01:10:37.529Z,0
2016-08-12T01:11:37.506Z,0
2016-08-12T01:12:37.502Z,0
2016-08-12T01:13:37.489Z,0
2016-08-12T01:14:38.181Z,0
2016-08-12T01:15:38.170Z,0
2016-08-12T01:16:37.454Z,0
2016-08-12T01:17:37.478Z,0
2016-08-12T01:18:38.136Z,0
2016-08-12T01:19:36.715Z,0
2016-08-12T01:20:38.118Z,0
2016-08-12T01:21:37.399Z,0
2016-08-12T01:22:36.681Z,0
2016-08-12T01:23:37.414Z,0
2016-08-12T01:24:36.662Z,0
2016-08-12T01:25:36.658Z,0
2016-08-12T01:26:38.065Z,0
2016-08-12T01:27:38.049Z,0
2016-08-12T01:28:37.323Z,0
2016-08-12T01:29:36.605Z,0
2016-08-12T01:30:37.312Z,0
2016-08-12T01:31:37.302Z,0
2016-08-12T01:32:37.992Z,0
2016-08-12T01:34:37.263Z,0
2016-08-12T01:35:37.249Z,0
2016-08-12T01:36:37.962Z,0
2016-08-12T01:37:37.245Z,0
2016-08-12T01:38:38.640Z,0
2016-08-12T01:39:37.206Z,0
2016-08-12T01:40:37.903Z,0
2016-08-12T01:41:37.891Z,0
2016-08-12T01:42:36.471Z,0
2016-08-12T01:43:37.872Z,0
2016-08-12T01:44:37.860Z,0
2016-08-12T01:45:37.138Z,0
2016-08-12T01:46:37.131Z,0
2016-08-12T01:47:39.248Z,0
2016-08-12T01:48:37.095Z,0
2016-08-12T01:49:37.803Z,0
2016-08-12T01:50:37.092Z,0
2016-08-12T01:51:37.788Z,0
2016-08-12T01:52:36.369Z,0
2016-08-12T01:53:37.779Z,0
2016-08-12T01:54:36.342Z,0
2016-08-12T01:55:36.328Z,0
2016-08-12T01:56:37.735Z,0
2016-08-12T01:57:37.021Z,0
2016-08-12T01:58:37.709Z,0
2016-08-12T01:59:37.700Z,0
2016-08-12T02:00:38.414Z,0
2016-08-12T02:01:36.970Z,0
2016-08-12T02:02:37.665Z,0
2016-08-12T02:04:36.943Z,0
2016-08-12T02:05:37.638Z,0
2016-08-12T02:06:37.636Z,0
2016-08-12T02:07:37.635Z,0
2016-08-12T02:08:38.306Z,0
2016-08-12T02:09:38.312Z,0
2016-08-12T02:10:36.881Z,0
2016-08-12T02:11:36.152Z,0
2016-08-12T02:12:36.142Z,0
2016-08-12T02:13:36.863Z,0
2016-08-12T02:14:37.552Z,0
2016-08-12T02:15:37.528Z,0
2016-08-12T02:16:37.529Z,0
2016-08-12T02:17:36.118Z,0
2016-08-12T02:18:37.484Z,0
2016-08-12T02:19:36.086Z,0
2016-08-12T02:20:36.773Z,0
2016-08-12T02:21:36.766Z,0
2016-08-12T02:22:36.038Z,0
2016-08-12T02:23:36.742Z,0
2016-08-12T02:24:37.433Z,0
2016-08-12T02:25:36.015Z,0
2016-08-12T02:26:36.711Z,0
2016-08-12T02:27:36.702Z,0
2016-08-12T02:28:37.396Z,0
2016-08-12T02:29:37.389Z,0
2016-08-12T02:30:36.680Z,0
2016-08-12T02:31:37.362Z,0
2016-08-12T02:32:37.352Z,0
2016-08-12T02:33:35.900Z,0
2016-08-12T02:34:38.041Z,0
2016-08-12T02:35:36.631Z,0
2016-08-12T02:36:36.608Z,0
2016-08-12T02:37:37.298Z,0
2016-08-12T02:38:35.878Z,0
2016-08-12T02:39:35.865Z,0
2016-08-12T02:40:35.853Z,0
2016-08-12T02:41:37.964Z,0
2016-08-12T02:42:36.535Z,0
2016-08-12T02:43:37.233Z,0
2016-08-12T02:44:36.512Z,0
2016-08-12T02:45:36.504Z,0
2016-08-12T02:46:37.203Z,0
2016-08-12T02:47:36.481Z,0
2016-08-12T02:49:37.178Z,0
2016-08-12T02:50:36.469Z,0
2016-08-12T02:51:37.155Z,0
2016-08-12T02:52:37.171Z,0
2016-08-12T02:53:37.129Z,0
2016-08-12T02:54:37.816Z,0
2016-08-12T02:55:35.700Z,0
2016-08-12T02:56:38.514Z,0
2016-08-12T02:57:37.093Z,0
2016-08-12T02:58:37.078Z,0
2016-08-12T02:59:36.362Z,0
2016-08-12T03:00:36.346Z,0
2016-08-12T03:01:36.335Z,0
2016-08-12T03:02:37.040Z,0
2016-08-12T03:03:35.821Z,0
2016-08-12T03:04:36.301Z,0
2016-08-12T03:05:36.292Z,0
2016-08-12T03:06:36.286Z,0
2016-08-12T03:07:36.978Z,0
2016-08-12T03:08:35.556Z,0
2016-08-12T03:09:37.158Z,0
2016-08-12T03:10:36.944Z,0
2016-08-12T03:11:36.236Z,0
2016-08-12T03:12:36.938Z,0
2016-08-12T03:13:36.208Z,0
2016-08-12T03:14:36.197Z,0
2016-08-12T03:15:37.606Z,0
2016-08-12T03:16:36.178Z,0
2016-08-12T03:17:36.170Z,0
2016-08-12T03:19:37.565Z,0
2016-08-12T03:20:36.156Z,0
2016-08-12T03:21:36.838Z,0
2016-08-12T03:22:36.831Z,0
2016-08-12T03:23:36.105Z,0
2016-08-12T03:24:36.797Z,0
2016-08-12T03:25:37.501Z,0
2016-08-12T03:26:36.781Z,0
2016-08-12T03:27:36.062Z,0
2016-08-12T03:28:35.343Z,0
2016-08-12T03:29:36.045Z,0
2016-08-12T03:30:36.041Z,0
2016-08-12T03:31:36.031Z,0
2016-08-12T09:34:30.442Z,170
2016-08-12T09:35:29.733Z,150
2016-08-12T09:36:29.010Z,175
2016-08-12T09:37:30.424Z,220
2016-08-12T09:38:29.695Z,200
2016-08-12T09:39:30.390Z,205
2016-08-12T09:40:29.689Z,200
2016-08-12T09:41:31.081Z,145
2016-08-12T09:42:29.679Z,165
2016-08-12T09:43:30.373Z,145
2016-08-12T09:44:30.350Z,150
2016-08-12T09:45:28.238Z,140
2016-08-12T09:46:29.639Z,145
2016-08-12T09:47:28.216Z,185
2016-08-12T09:48:29.619Z,205
2016-08-12T09:49:31.032Z,265
2016-08-12T09:50:28.181Z,295
2016-08-12T09:51:28.171Z,340
2016-08-12T09:52:29.573Z,305
2016-08-12T09:53:29.578Z,280
2016-08-12T09:54:30.262Z,365
2016-08-12T09:55:30.257Z,365
2016-08-12T09:56:28.843Z,335
2016-08-12T09:57:28.830Z,270
2016-08-12T09:58:28.825Z,245
2016-08-12T09:59:30.235Z,180
2016-08-12T10:00:29.509Z,225
2016-08-12T10:01:29.517Z,215
2016-08-12T10:02:28.797Z,205
2016-08-12T10:03:28.779Z,245
2016-08-12T10:04:29.484Z,300
2016-08-12T10:05:28.758Z,320
2016-08-12T10:06:30.172Z,310
2016-08-12T10:07:28.757Z,300
2016-08-12T10:08:30.162Z,305
2016-08-12T10:09:28.742Z,315
2016-08-12T10:10:28.734Z,270
2016-08-12T10:11:28.012Z,285
2016-08-12T10:12:28.008Z,300
2016-08-12T10:13:28.704Z,365
2016-08-12T10:14:29.401Z,395
2016-08-12T10:15:28.694Z,355
2016-08-12T10:16:28.690Z,310
2016-08-12T10:17:28.672Z,270
2016-08-12T10:18:30.085Z,235
2016-08-12T10:19:29.365Z,205
2016-08-12T10:20:28.641Z,210
2016-08-12T10:21:29.353Z,220
2016-08-12T10:22:29.358Z,200
2016-08-12T10:23:28.638Z,185
2016-08-12T10:24:29.326Z,150
2016-08-12T10:25:28.616Z,175
2016-08-12T10:26:28.616Z,200
2016-08-12T10:27:29.304Z,185
2016-08-12T10:28:27.893Z,150
2016-08-12T10:29:27.885Z,160
2016-08-12T10:30:28.582Z,155
2016-08-12T10:31:29.274Z,150
2016-08-12T10:32:29.266Z,115
2016-08-12T10:33:27.854Z,95
2016-08-12T10:34:29.969Z,125
2016-08-12T10:35:27.800Z,120
2016-08-12T10:36:28.535Z,100
2016-08-12T10:37:28.521Z,105
2016-08-12T10:38:29.222Z,110
2016-08-12T10:39:28.504Z,115
2016-08-12T10:40:29.944Z,115
2016-08-12T10:41:27.787Z,115
2016-08-12T10:42:29.213Z,115
2016-08-12T10:43:28.498Z,110
2016-08-12T10:44:29.890Z,120
2016-08-12T10:45:29.917Z,145
2016-08-12T10:46:27.755Z,150
2016-08-12T10:47:30.571Z,150
2016-08-12T10:48:29.848Z,165
2016-08-12T10:49:28.433Z,210
2016-08-12T10:51:28.413Z,215
2016-08-12T10:52:29.112Z,185
2016-08-12T10:53:29.116Z,165
2016-08-12T10:54:29.798Z,135
2016-08-12T10:55:29.099Z,125
2016-08-12T10:56:29.095Z,150
2016-08-12T10:57:29.787Z,140
2016-08-12T10:58:27.655Z,110
2016-08-12T10:59:29.079Z,110
2016-08-12T11:00:27.627Z,100
2016-08-12T11:01:28.325Z,100
2016-08-12T11:02:30.474Z,115
2016-08-12T11:03:29.066Z,145
2016-08-12T11:04:28.308Z,140
2016-08-12T11:06:28.291Z,140
2016-08-12T11:07:27.576Z,130
2016-08-12T11:08:28.984Z,130
2016-08-12T11:09:28.980Z,150
2016-08-12T11:10:27.561Z,145
2016-08-12T11:11:30.391Z,125
2016-08-12T11:12:28.956Z,130
2016-08-12T11:13:28.963Z,130
2016-08-12T11:14:27.518Z,120
2016-08-12T11:15:28.937Z,110
2016-08-12T11:16:28.925Z,105
2016-08-12T11:17:28.926Z,100
2016-08-12T11:18:28.196Z,95
2016-08-12T11:19:28.896Z,85
2016-08-12T11:21:28.875Z,130
2016-08-12T11:22:29.582Z,165
2016-08-12T11:23:27.459Z,195
2016-08-12T11:24:28.873Z,235
2016-08-12T11:25:29.754Z,255
2016-08-12T11:26:28.844Z,195
2016-08-12T11:27:28.826Z,185
2016-08-12T11:28:28.847Z,185
2016-08-12T11:29:27.404Z,280
2016-08-12T11:30:28.229Z,385
2016-08-12T11:31:28.099Z,400
2016-08-12T11:32:27.375Z,270
2016-08-12T11:33:29.490Z,255
2016-08-12T11:34:28.070Z,235
2016-08-12T11:35:28.067Z,190
2016-08-12T11:36:28.760Z,200
2016-08-12T11:37:29.474Z,190
2016-08-12T11:38:27.334Z,165
2016-08-12T11:39:28.740Z,170
2016-08-12T11:40:27.314Z,220
2016-08-12T11:41:28.725Z,295
2016-08-12T11:42:28.727Z,455
2016-08-12T11:43:28.711Z,415
2016-08-12T11:44:28.704Z,405
2016-08-12T11:45:29.395Z,350
2016-08-12T11:46:29.391Z,300
2016-08-12T11:47:28.680Z,245
2016-08-12T11:48:29.397Z,235
2016-08-12T11:49:29.370Z,255
2016-08-12T11:50:28.664Z,300
2016-08-12T11:51:29.356Z,275
2016-08-12T11:52:29.353Z,275
2016-08-12T11:53:27.220Z,225
2016-08-12T11:54:27.218Z,215
2016-08-12T11:55:27.910Z,270
2016-08-12T11:56:27.207Z,255
2016-08-12T11:57:27.200Z,275
2016-08-12T11:58:27.905Z,275
2016-08-12T11:59:28.600Z,270
2016-08-12T12:00:27.884Z,385
2016-08-12T12:01:30.002Z,230
2016-08-12T12:02:27.164Z,160
2016-08-12T12:03:28.571Z,130
2016-08-12T12:04:28.567Z,205
2016-08-12T12:05:28.557Z,205
2016-08-12T12:06:27.842Z,250
2016-08-12T12:07:28.544Z,225
2016-08-12T12:08:29.273Z,240
2016-08-12T12:09:28.524Z,235
2016-08-12T12:10:27.812Z,235
2016-08-12T12:11:29.926Z,230
2016-08-12T12:12:27.790Z,200
2016-08-12T12:13:27.083Z,180
2016-08-12T12:14:28.531Z,185
2016-08-12T12:15:27.775Z,150
2016-08-12T12:16:29.191Z,205
2016-08-12T12:17:27.052Z,195
2016-08-12T12:18:28.484Z,195
2016-08-12T12:19:28.463Z,175
2016-08-12T12:20:27.735Z,125
2016-08-12T12:21:27.740Z,95
2016-08-12T12:22:29.142Z,115
2016-08-12T12:23:28.424Z,200
2016-08-12T12:24:28.416Z,270
2016-08-12T12:25:27.703Z,275
2016-08-12T12:26:28.405Z,255
2016-08-12T12:27:28.405Z,210
2016-08-12T12:28:28.400Z,185
2016-08-12T12:29:26.989Z,210
2016-08-12T12:30:29.088Z,225
2016-08-12T12:31:26.950Z,215
2016-08-12T12:32:27.656Z,280
2016-08-12T12:33:28.376Z,295
2016-08-12T12:34:26.937Z,270
2016-08-12T12:35:28.415Z,235
2016-08-12T12:36:27.627Z,190
2016-08-12T12:37:27.646Z,185
2016-08-12T12:38:26.931Z,195
2016-08-12T12:39:27.614Z,240
2016-08-12T12:41:29.736Z,295
2016-08-12T12:42:27.586Z,380
2016-08-12T12:43:29.011Z,325
2016-08-12T12:44:27.606Z,260
2016-08-12T12:45:28.277Z,225
2016-08-12T12:46:28.270Z,200
2016-08-12T12:47:26.856Z,175
2016-08-12T12:48:28.256Z,150
2016-08-12T12:49:28.948Z,155
2016-08-12T12:50:28.948Z,135
2016-08-12T12:51:28.251Z,150
2016-08-12T12:52:27.527Z,150
2016-08-12T12:54:27.516Z,175
2016-08-12T12:55:27.506Z,155
2016-08-12T12:56:26.785Z,155
2016-08-12T12:57:27.497Z,160
2016-08-12T12:58:27.477Z,185
2016-08-12T12:59:28.892Z,260
2016-08-12T13:00:28.175Z,245
2016-08-12T13:01:27.464Z,235
2016-08-12T13:02:27.463Z,240
2016-08-12T13:03:28.155Z,210
2016-08-12T13:04:27.442Z,195
2016-08-12T13:05:27.431Z,190
2016-08-12T13:06:28.159Z,170
2016-08-12T13:07:28.127Z,165
2016-08-12T13:08:27.419Z,140
2016-08-12T13:09:28.108Z,125
2016-08-12T13:10:26.708Z,115
2016-08-12T13:11:26.718Z,110
2016-08-12T13:12:27.387Z,115
2016-08-12T13:13:27.379Z,120
2016-08-12T13:14:28.085Z,130
2016-08-12T13:15:28.080Z,135
2016-08-12T13:16:27.369Z,140
2016-08-12T13:17:28.058Z,145
2016-08-12T13:18:26.672Z,150
2016-08-12T13:19:27.354Z,150
2016-08-12T13:20:28.750Z,145
2016-08-12T13:21:27.325Z,150
2016-08-12T13:22:28.029Z,150
2016-08-12T13:23:28.018Z,150
2016-08-12T13:24:27.312Z,160
2016-08-12T13:25:27.296Z,160
2016-08-12T13:26:28.030Z,160
2016-08-12T13:27:27.281Z,150
2016-08-12T13:28:27.285Z,135
2016-08-12T13:29:28.682Z,140
2016-08-12T13:30:28.679Z,150
2016-08-12T13:31:27.957Z,170
2016-08-12T13:32:27.966Z,200
2016-08-12T13:33:26.529Z,210
2016-08-12T13:34:27.936Z,205
2016-08-12T13:35:26.547Z,195
2016-08-12T13:36:26.516Z,190
2016-08-12T13:37:27.928Z,185
2016-08-12T13:38:27.207Z,175
2016-08-12T13:39:28.634Z,175
2016-08-12T13:40:26.494Z,175
2016-08-12T13:41:27.891Z,185
2016-08-12T13:42:27.181Z,190
2016-08-12T13:43:27.166Z,185
2016-08-12T13:44:28.583Z,190
2016-08-12T13:45:28.575Z,180
2016-08-12T13:46:27.864Z,185
2016-08-12T13:47:28.567Z,160
2016-08-12T13:48:26.528Z,155
2016-08-12T13:49:28.541Z,140
2016-08-12T13:50:27.841Z,135
2016-08-12T13:51:27.120Z,140
2016-08-12T13:52:27.818Z,110
2016-08-12T13:53:26.406Z,85
2016-08-12T13:54:27.093Z,90
2016-08-12T13:55:27.793Z,125
2016-08-12T13:56:28.508Z,135
2016-08-12T13:57:27.791Z,140
2016-08-12T13:58:27.786Z,135
2016-08-12T13:59:27.787Z,130
2016-08-12T14:00:27.763Z,180
2016-08-12T14:01:27.058Z,235
2016-08-12T14:02:27.050Z,330
2016-08-12T14:03:27.747Z,395
2016-08-12T14:04:28.453Z,475
2016-08-12T14:05:27.033Z,450
2016-08-12T14:06:27.016Z,420
2016-08-12T14:07:27.709Z,395
2016-08-12T14:08:27.000Z,355
2016-08-12T14:09:26.996Z,320
2016-08-12T14:10:26.987Z,290
2016-08-12T14:11:27.688Z,235
2016-08-12T14:12:26.984Z,210
2016-08-12T14:13:26.975Z,185
2016-08-12T14:14:27.667Z,155
2016-08-12T14:15:27.668Z,150
2016-08-12T14:16:26.950Z,180
2016-08-12T14:17:27.658Z,195
2016-08-12T14:18:26.251Z,200
2016-08-12T14:19:27.640Z,235
2016-08-12T14:20:27.632Z,275
2016-08-12T14:21:26.930Z,310
2016-08-12T14:22:28.328Z,320
2016-08-12T14:24:26.902Z,270
2016-08-12T14:25:28.308Z,220
2016-08-12T14:26:28.319Z,160
2016-08-12T14:27:26.181Z,135
2016-08-12T14:28:27.634Z,125
2016-08-12T14:29:27.628Z,115
2016-08-12T14:30:27.579Z,115
2016-08-12T14:31:27.568Z,150
2016-08-12T14:32:26.851Z,215
2016-08-12T14:33:26.854Z,265
2016-08-12T14:34:26.849Z,285
2016-08-12T14:35:27.550Z,280
2016-08-12T14:36:27.543Z,270
2016-08-12T14:37:28.259Z,280
2016-08-12T14:38:27.766Z,290
2016-08-12T14:39:27.519Z,290
2016-08-12T14:40:27.505Z,255
2016-08-12T14:41:27.509Z,260
2016-08-12T14:42:26.789Z,325
2016-08-12T14:43:27.490Z,350
2016-08-12T14:44:26.776Z,320
2016-08-12T14:45:27.480Z,405
2016-08-12T14:46:27.485Z,350
2016-08-12T14:47:28.305Z,455
2016-08-12T14:48:27.464Z,420
2016-08-12T14:49:27.464Z,350
2016-08-12T14:50:26.752Z,270
2016-08-12T14:51:28.876Z,250
2016-08-12T14:52:26.725Z,295
2016-08-12T14:53:26.021Z,270
2016-08-12T14:54:28.135Z,265
2016-08-12T14:55:27.425Z,720
2016-08-12T14:56:26.707Z,795
2016-08-12T14:57:27.404Z,405
2016-08-12T14:58:25.989Z,405
2016-08-12T14:59:28.110Z,770
2016-08-12T15:00:28.101Z,335
2016-08-12T15:01:27.382Z,300
2016-08-12T15:02:26.688Z,255
2016-08-12T15:03:28.091Z,205
2016-08-12T15:04:26.674Z,155
2016-08-12T15:05:28.779Z,125
2016-08-12T15:06:25.966Z,105
2016-08-12T15:07:26.646Z,80
2016-08-12T15:08:26.645Z,70
2016-08-12T15:09:26.636Z,70
2016-08-12T15:10:27.542Z,60
2016-08-12T15:11:27.359Z,55
2016-08-12T15:12:28.735Z,55
2016-08-12T15:13:27.316Z,55
2016-08-12T15:14:27.322Z,65
2016-08-12T15:15:27.311Z,80
2016-08-12T15:16:28.012Z,95
2016-08-12T15:17:26.587Z,125
2016-08-12T15:18:27.992Z,160
2016-08-12T15:19:26.589Z,180
2016-08-12T15:20:27.284Z,165
2016-08-12T15:21:27.991Z,140
2016-08-12T15:22:25.859Z,135
2016-08-12T15:23:27.970Z,150
2016-08-12T15:24:27.248Z,375
2016-08-12T15:25:27.255Z,525
2016-08-12T15:26:27.971Z,265
2016-08-12T15:27:27.242Z,235
2016-08-12T15:28:27.233Z,210
2016-08-12T15:29:27.234Z,180
2016-08-12T15:30:27.220Z,155
2016-08-12T15:31:27.919Z,185
2016-08-12T15:32:26.515Z,185
2016-08-12T15:33:26.492Z,195
2016-08-12T15:34:25.778Z,205
2016-08-12T15:36:27.916Z,200
2016-08-12T15:37:27.650Z,230
2016-08-12T15:38:28.582Z,215
2016-08-12T15:39:26.460Z,210
2016-08-12T15:40:27.172Z,200
2016-08-12T15:41:27.157Z,195
2016-08-12T15:42:27.165Z,170
2016-08-12T15:43:27.160Z,175
2016-08-12T15:44:27.135Z,170
2016-08-12T15:45:27.860Z,160
2016-08-12T15:46:26.425Z,150
2016-08-12T15:47:26.404Z,165
2016-08-12T15:48:26.402Z,670
2016-08-12T15:49:26.411Z,500
2016-08-12T15:50:27.801Z,220
2016-08-12T15:51:26.403Z,260
2016-08-12T15:52:27.798Z,210
2016-08-12T15:53:26.374Z,200
2016-08-12T15:54:27.082Z,230
2016-08-12T15:55:27.073Z,305
2016-08-12T15:56:25.657Z,855
2016-08-12T15:57:27.076Z,950
2016-08-12T15:58:28.484Z,900
2016-08-12T15:59:27.062Z,890
2016-08-12T16:00:25.622Z,715
2016-08-12T16:01:26.327Z,230
2016-08-12T16:02:27.032Z,175
2016-08-12T16:03:26.319Z,125
2016-08-12T16:04:26.317Z,105
2016-08-12T16:05:26.307Z,100
2016-08-12T16:06:27.032Z,110
2016-08-12T16:07:27.714Z,140
2016-08-12T16:08:27.702Z,205
2016-08-12T16:09:26.997Z,260
2016-08-12T16:10:25.576Z,275
2016-08-12T16:11:26.984Z,190
2016-08-12T16:12:26.281Z,125
2016-08-12T16:13:26.983Z,115
2016-08-12T16:14:26.980Z,125
2016-08-12T16:15:26.270Z,125
2016-08-12T16:16:25.562Z,220
2016-08-12T16:17:26.275Z,130
2016-08-12T16:18:26.954Z,130
2016-08-12T16:19:27.005Z,125
2016-08-12T16:20:26.953Z,135
2016-08-12T16:21:25.533Z,140
2016-08-12T16:22:27.641Z,120
2016-08-12T16:23:26.943Z,105
2016-08-12T16:24:28.359Z,100
2016-08-12T16:25:26.973Z,95
2016-08-12T16:26:27.631Z,80
2016-08-12T16:27:26.203Z,70
2016-08-12T16:28:27.615Z,60
2016-08-12T16:29:26.893Z,55
2016-08-12T16:30:26.916Z,50
2016-08-12T16:31:26.173Z,45
2016-08-12T16:32:28.301Z,60
2016-08-12T16:33:26.982Z,435
2016-08-12T16:34:26.865Z,80
2016-08-12T16:35:26.161Z,85
2016-08-12T16:36:26.920Z,95
2016-08-12T16:37:27.563Z,100
2016-08-12T16:38:26.860Z,95
2016-08-12T16:39:26.133Z,90
2016-08-12T16:40:27.563Z,90
2016-08-12T16:41:26.832Z,85
2016-08-12T16:42:26.819Z,85
2016-08-12T16:43:26.112Z,85
2016-08-12T16:44:26.807Z,80
2016-08-12T16:45:26.803Z,70
2016-08-12T16:46:26.786Z,60
2016-08-12T16:47:26.797Z,60
2016-08-12T16:48:27.494Z,60
2016-08-12T16:49:26.787Z,60
2016-08-12T16:50:26.069Z,60
2016-08-12T16:51:26.785Z,60
2016-08-12T16:52:26.059Z,65
2016-08-12T16:53:27.466Z,65
2016-08-12T16:54:26.762Z,70
2016-08-12T16:55:27.469Z,75
2016-08-12T16:56:26.026Z,80
2016-08-12T16:57:26.726Z,90
2016-08-12T16:58:26.023Z,100
2016-08-12T16:59:26.736Z,105
2016-08-12T17:00:26.007Z,115
2016-08-12T17:01:26.002Z,180
2016-08-12T17:02:26.827Z,160
2016-08-12T17:03:26.710Z,140
2016-08-12T17:04:25.985Z,130
2016-08-12T17:05:26.685Z,105
2016-08-12T17:06:26.669Z,90
2016-08-12T17:07:25.960Z,80
2016-08-12T17:08:27.379Z,80
2016-08-12T17:09:26.650Z,80
2016-08-12T17:10:25.937Z,75
2016-08-12T17:11:25.938Z,65
2016-08-12T17:12:28.058Z,60
2016-08-12T17:13:25.943Z,55
2016-08-12T17:14:26.631Z,50
2016-08-12T17:15:27.327Z,40
2016-08-12T17:16:26.640Z,35
2016-08-12T17:17:26.622Z,25
2016-08-12T17:18:26.593Z,20
2016-08-12T17:19:27.297Z,15
2016-08-12T17:20:26.588Z,10
2016-08-12T17:21:26.583Z,10
2016-08-12T17:22:27.288Z,10
2016-08-12T17:23:26.561Z,10
2016-08-12T17:24:27.273Z,15
2016-08-12T17:25:26.565Z,20
2016-08-12T17:26:25.836Z,20
2016-08-12T17:27:26.546Z,15
2016-08-12T17:28:26.539Z,15
2016-08-12T17:29:26.525Z,15
2016-08-12T17:30:25.815Z,15
2016-08-12T17:31:27.588Z,20
2016-08-12T17:32:25.789Z,25
2016-08-12T17:33:27.453Z,25
2016-08-12T17:34:27.331Z,30
2016-08-12T17:35:27.191Z,30
2016-08-12T17:36:26.463Z,30
2016-08-12T17:37:27.184Z,30
2016-08-12T17:38:26.481Z,35
2016-08-12T17:39:27.389Z,35
2016-08-12T17:40:26.458Z,35
2016-08-12T17:41:27.177Z,35
2016-08-12T17:42:26.460Z,30
2016-08-12T17:43:27.139Z,35
2016-08-12T17:44:25.721Z,35
2016-08-12T17:45:26.416Z,35
2016-08-12T17:46:25.705Z,35
2016-08-12T17:47:26.413Z,35
2016-08-12T17:48:27.834Z,35
2016-08-12T17:49:25.670Z,35
2016-08-12T17:50:26.386Z,30
2016-08-12T17:51:25.671Z,30
2016-08-12T17:52:26.356Z,30
2016-08-12T17:53:27.072Z,25
2016-08-12T17:54:26.351Z,25
2016-08-12T17:55:25.631Z,25
2016-08-12T17:56:25.641Z,20
2016-08-12T17:57:26.331Z,20
2016-08-12T17:58:27.026Z,15
2016-08-12T17:59:25.625Z,15
2016-08-12T18:00:27.028Z,15
2016-08-12T18:01:25.593Z,20
2016-08-12T18:02:25.589Z,20
2016-08-12T18:03:26.284Z,20
2016-08-12T18:04:26.274Z,25
2016-08-12T18:05:24.853Z,25
2016-08-12T18:06:24.856Z,25
2016-08-12T18:07:26.268Z,25
2016-08-12T18:08:26.260Z,25
2016-08-12T18:09:26.967Z,25
2016-08-12T18:10:26.236Z,30
2016-08-12T18:11:26.230Z,25
2016-08-12T18:12:26.239Z,25
2016-08-12T18:13:25.516Z,25
2016-08-12T18:14:26.916Z,25
2016-08-12T18:15:25.489Z,25
2016-08-12T18:16:25.488Z,25
2016-08-12T18:17:26.914Z,25
2016-08-12T18:18:27.604Z,25
2016-08-12T18:19:26.164Z,25
2016-08-12T18:20:24.745Z,25
2016-08-12T18:21:25.455Z,25
2016-08-12T18:22:25.451Z,25
2016-08-12T18:23:24.729Z,25
2016-08-12T18:24:24.716Z,25
2016-08-12T18:25:25.437Z,20
2016-08-12T18:26:25.417Z,20
2016-08-12T18:27:26.888Z,20
2016-08-12T18:28:26.123Z,15
2016-08-12T18:29:24.673Z,15
2016-08-12T18:30:26.797Z,15
2016-08-12T18:31:26.086Z,15
2016-08-12T18:32:26.076Z,15
2016-08-12T18:33:25.373Z,15
2016-08-12T18:34:26.073Z,10
2016-08-12T18:35:25.368Z,10
2016-08-12T18:36:26.093Z,10
2016-08-12T18:37:26.042Z,10
2016-08-12T18:38:25.315Z,5
2016-08-12T18:39:25.319Z,5
2016-08-12T18:40:25.317Z,5
2016-08-12T18:41:24.597Z,5
2016-08-12T18:42:26.008Z,5
2016-08-12T18:43:25.282Z,5
2016-08-12T18:44:26.746Z,5
2016-08-12T18:45:25.265Z,5
2016-08-12T18:46:25.262Z,5
2016-08-12T18:47:25.257Z,5
2016-08-12T18:48:25.257Z,5
2016-08-12T18:49:26.671Z,5
2016-08-12T18:50:25.942Z,5
2016-08-12T18:51:25.931Z,5
2016-08-12T18:52:25.221Z,0
2016-08-12T18:53:24.502Z,0
2016-08-12T18:54:26.622Z,0
2016-08-12T18:55:25.193Z,0
2016-08-12T18:56:25.896Z,0
2016-08-12T18:57:25.179Z,0
2016-08-12T18:58:25.176Z,0
2016-08-12T18:59:25.878Z,0
2016-08-12T19:00:24.467Z,0
2016-08-12T19:01:25.872Z,0
2016-08-12T19:02:25.141Z,0
2016-08-12T19:03:26.547Z,0
2016-08-12T19:04:24.423Z,0
2016-08-12T19:05:25.827Z,0
2016-08-12T19:06:25.112Z,0
2016-08-12T19:07:26.523Z,0
2016-08-12T19:08:25.097Z,0
2016-08-12T19:09:25.793Z,0
2016-08-12T19:10:25.799Z,0
2016-08-12T19:11:24.369Z,0
2016-08-12T19:12:24.359Z,0
2016-08-12T19:13:25.059Z,0
2016-08-12T19:14:25.051Z,0
2016-08-12T19:15:25.751Z,0
2016-08-12T19:16:25.033Z,0
2016-08-12T19:17:25.748Z,0
2016-08-12T19:18:24.319Z,0
2016-08-12T19:19:25.010Z,0
2016-08-12T19:20:26.429Z,0
2016-08-12T19:21:24.996Z,0
2016-08-12T19:22:25.694Z,0
2016-08-12T19:23:25.693Z,0
2016-08-12T19:24:25.696Z,0
2016-08-12T19:25:25.696Z,0
2016-08-12T19:26:24.302Z,0
2016-08-12T19:27:26.373Z,0
2016-08-12T19:28:24.943Z,0
2016-08-12T19:29:24.233Z,0
2016-08-12T19:30:24.935Z,0
2016-08-12T19:31:24.928Z,0
2016-08-12T19:32:24.207Z,0
2016-08-12T19:33:24.912Z,0
2016-08-12T19:34:25.611Z,0
2016-08-12T19:35:25.615Z,0
2016-08-12T19:36:25.601Z,0
2016-08-12T19:37:26.307Z,0
2016-08-12T19:38:24.886Z,0
2016-08-12T19:39:24.857Z,0
2016-08-12T19:40:25.576Z,0
2016-08-12T19:41:25.561Z,0
2016-08-12T19:42:25.563Z,0
2016-08-12T19:43:25.544Z,0
2016-08-12T19:44:24.118Z,0
2016-08-12T19:45:24.816Z,0
2016-08-12T19:46:26.240Z,0
2016-08-12T19:47:25.523Z,0
2016-08-12T19:48:25.505Z,0
2016-08-12T19:49:24.795Z,0
2016-08-12T19:50:24.083Z,0
2016-08-12T19:51:24.062Z,0
2016-08-12T19:52:24.761Z,0
2016-08-12T19:53:26.188Z,0
2016-08-12T19:54:25.479Z,0
2016-08-12T19:55:24.751Z,0
2016-08-12T19:56:25.458Z,0
2016-08-12T19:57:25.439Z,0
2016-08-12T19:58:26.131Z,0
2016-08-12T19:59:25.436Z,0
2016-08-12T20:00:25.416Z,0
2016-08-12T20:01:25.404Z,0
2016-08-12T20:02:24.689Z,0
2016-08-12T20:03:25.392Z,0
2016-08-12T20:04:24.672Z,0
2016-08-12T20:05:24.666Z,0
2016-08-12T20:06:25.373Z,0
2016-08-12T20:07:24.642Z,0
2016-08-12T20:08:24.653Z,0
2016-08-12T20:09:25.325Z,0
2016-08-12T20:10:23.911Z,0
2016-08-12T20:11:25.343Z,0
2016-08-12T20:12:25.307Z,0
2016-08-12T20:13:24.601Z,0
2016-08-12T20:14:23.877Z,0
2016-08-12T20:15:25.275Z,0
2016-08-12T20:16:23.853Z,0
2016-08-12T20:17:24.567Z,0
2016-08-12T20:18:25.254Z,0
2016-08-12T20:19:25.251Z,0
2016-08-12T20:20:24.548Z,0
2016-08-12T20:21:23.818Z,0
2016-08-12T20:22:24.542Z,0
2016-08-12T20:23:23.794Z,0
2016-08-12T20:24:25.219Z,0
2016-08-12T20:25:24.493Z,0
2016-08-12T20:26:24.478Z,0